• Join FlightAware (Why Join?)
  • Login
  • US Flag 
05:27AM EDT


 

Airport Tracker/Info


-or-


 

Live Flight TrackerFlight Track Log ✈ EJA820 ✈ 21-Apr-2013 ✈ KPBI - KPHF

Flight Track Log - Related Links

Times and Time Zones

All times are in EDT time to prevent confusion due to time zone crossing. See the EJA820 flight status page for this flight to view local times or setup timezone preferences in your user account.

Time Position Orientation Groundspeed Altitude Reporting Facility
EDT Latitude Longitude Course Direction KTS MPH feet Rate Location/Type
10:01AM 26.7133 -80.2544 331° Northwest 274 315 7,400  Level Miami Center
10:02AM 26.7692 -80.2886 331° Northwest 268 308 10,100 2,820 Climbing Miami Center
10:03AM 26.8392 -80.3278 333° Northwest 257 296 13,100 2,760 Climbing Miami Center
10:04AM 26.8603 -80.4031 287° West 237 273 15,700 2,340 Climbing Miami Center
10:05AM 26.8922 -80.4575 303° West 252 290 17,800 1,980 Climbing Miami Center
10:06AM 26.9667 -80.4925 337° Northwest 246 283 19,700 1,740 Climbing Miami Center
10:07AM 27.0475 -80.5206 343° North 270 311 21,300 1,500 Climbing Miami Center
10:08AM 27.1322 -80.5489 343° North 299 344 22,800 1,500 Climbing Miami Center
10:09AM 27.2211 -80.5822 342° North 315 362 24,300 1,500 Climbing Miami Center
10:10AM 27.3122 -80.6131 343° North 327 376 25,800 1,500 Climbing Miami Center
10:11AM 27.4033 -80.6464 342° North 333 383 27,300 1,500 Climbing Miami Center
10:12AM 27.4964 -80.6800 342° North 339 390 28,800 1,500 Climbing Miami Center
10:13AM 27.5894 -80.7111 343° North 339 390 30,400 1,500 Climbing Miami Center
10:14AM 27.6825 -80.7447 342° North 339 390 31,900 1,500 Climbing Miami Center
10:15AM 27.7756 -80.7783 342° North 344 396 33,400 1,500 Climbing Miami Center
10:16AM 27.8644 -80.8075 344° North 344 396 34,900 1,440 Climbing Miami Center
10:17AM 27.9553 -80.8386 343° North 344 396 36,300 1,200 Climbing Miami Center
10:18AM 28.0422 -80.8700 342° North 339 390 37,400 1,080 Climbing Miami Center
10:19AM 28.1372 -80.9064 341° North 344 396 38,500 1,020 Climbing Miami Center
10:20AM 28.2261 -80.9378 343° North 344 396 39,500 900 Climbing Miami Center
10:21AM 28.3128 -80.9692 342° North 339 390 40,300 540 Climbing Miami Center
10:23AM 28.4619 -81.0294 340° North 350 403 41,000 240 Climbing Jacksonville Center
10:24AM 28.5564 -81.0633 343° North 350 403 41,000  Level Jacksonville Center
10:25AM 28.6508 -81.0994 341° North 350 403 41,000  Level Jacksonville Center
10:26AM 28.7492 -81.1308 344° North 356 410 41,000  Level Jacksonville Center
10:27AM 28.8539 -81.1525 350° North 367 422 41,000  Level Jacksonville Center
10:28AM 28.9586 -81.1792 347° North 374 430 41,000  Level Jacksonville Center
10:29AM 29.0633 -81.2011 350° North 374 430 41,000  Level Jacksonville Center
10:30AM 29.1658 -81.2256 348° North 374 430 41,100  Climbing Jacksonville Center
10:31AM 29.2786 -81.2261 360° North 380 437 41,000 -60 Descending Jacksonville Center
10:32AM 29.3914 -81.2217 North 390 449 41,000  Level Jacksonville Center
10:33AM 29.5103 -81.2222 360° North 390 449 41,000  Level Jacksonville Center
10:34AM 29.6272 -81.2178 North 390 449 41,000  Level Jacksonville Center
10:35AM 29.7397 -81.2133 North 401 461 41,000  Level Jacksonville Center
10:36AM 29.8525 -81.2114 North 401 461 41,000  Level Jacksonville Center
10:37AM 29.9672 -81.2069 North 401 461 41,000  Level Jacksonville Center
10:38AM 30.0800 -81.2050 North 401 461 41,000  Level Jacksonville Center
10:39AM 30.1969 -81.2006 North 407 468 41,000  Level Jacksonville Center
10:40AM 30.3117 -81.2011 360° North 407 468 41,000  Level Jacksonville Center
10:41AM 30.4306 -81.1964 North 402 463 41,000  Level Jacksonville Center
10:42AM 30.5433 -81.1944 North 407 468 41,000  Level Jacksonville Center
10:43AM 30.6561 -81.1925 North 407 468 41,000  Level Jacksonville Center
10:44AM 30.7708 -81.1881 North 407 468 41,000  Level Jacksonville Center
10:45AM 30.8897 -81.1883 360° North 407 468 41,000  Level Jacksonville Center
10:46AM 31.0067 -81.1839 North 407 468 41,000  Level Jacksonville Center
10:47AM 31.1214 -81.1792 North 407 468 41,000  Level Jacksonville Center
10:48AM 31.2383 -81.1797 360° North 408 470 41,000  Level Jacksonville Center
10:49AM 31.3506 -81.1314 20° North 416 479 41,000  Level Jacksonville Center
10:50AM 31.4497 -81.0589 32° Northeast 440 506 41,000  Level Jacksonville Center
10:51AM 31.5694 -80.9761 30° Northeast 454 522 41,000  Level Jacksonville Center
10:52AM 31.6686 -80.9081 30° Northeast 454 522 41,000  Level Jacksonville Center
10:53AM 31.7864 -80.8225 32° Northeast 454 522 41,000  Level Jacksonville Center
10:54AM 31.8978 -80.7489 29° Northeast 454 522 41,000  Level Jacksonville Center
10:55AM 31.9969 -80.6781 31° Northeast 464 534 41,000  Level Jacksonville Center
10:56AM 32.1186 -80.5942 30° Northeast 464 534 41,000  Level Jacksonville Center
10:57AM 32.2175 -80.5231 31° Northeast 459 528 41,000  Level Jacksonville Center
10:58AM 32.3267 -80.4439 31° Northeast 459 528 41,000  Level Jacksonville Center
10:59AM 32.4378 -80.3647 31° Northeast 465 535 41,000  Level Jacksonville Center
11:00AM 32.5467 -80.2853 32° Northeast 465 535 41,000  Level Jacksonville Center
11:01AM 32.6578 -80.2081 30° Northeast 465 535 41,000  Level Jacksonville Center
11:02AM 32.7792 -80.1178 32° Northeast 465 535 41,000  Level Jacksonville Center
11:03AM 32.8881 -80.0378 32° Northeast 465 535 41,000  Level Jacksonville Center
11:04AM 32.9922 -79.9406 38° Northeast 470 541 41,000  Level Jacksonville Center
11:05AM 33.0942 -79.8428 39° Northeast 470 541 41,000  Level Jacksonville Center
11:06AM 33.2186 -79.7244 38° Northeast 470 541 41,000  Level Jacksonville Center
11:07AM 33.3183 -79.6289 39° Northeast 470 541 41,000  Level Jacksonville Center
11:08AM 33.4181 -79.5308 39° Northeast 465 535 41,000  Level Jacksonville Center
11:09AM 33.5178 -79.4322 39° Northeast 460 529 41,000  Level Jacksonville Center
11:10AM 33.6192 -79.3311 40° Northeast 460 529 41,000  Level Jacksonville Center
11:11AM 33.6983 -79.2531 39° Northeast 460 529 41,000  Level Jacksonville Center
11:12AM 33.8058 -79.1511 38° Northeast 455 524 41,000  Level Jacksonville Center
11:14AM 33.9822 -78.9753 40° Northeast 474 545 41,000  Level Washington Center
11:15AM 34.0808 -78.8764 40° Northeast 462 532 41,000  Level Washington Center
11:16AM 34.1922 -78.7678 39° Northeast 462 532 41,000  Level Washington Center
11:17AM 34.2931 -78.6661 40° Northeast 467 537 41,000  Level Washington Center
11:18AM 34.3936 -78.5642 40° Northeast 467 537 41,000  Level Washington Center
11:19AM 34.4961 -78.4647 39° Northeast 467 537 41,000  Level Washington Center
11:20AM 34.5967 -78.3622 40° Northeast 467 537 41,000  Level Washington Center
11:21AM 34.7014 -78.2547 40° Northeast 472 543 41,000  Level Washington Center
11:22AM 34.7833 -78.1308 51° Northeast 466 536 41,000  Level Washington Center
11:23AM 34.8406 -77.9936 63° Northeast 480 552 41,000 -120 Level Washington Center
11:24AM 34.9078 -77.8561 59° Northeast 480 552 40,800 -780 Descending Washington Center
11:25AM 34.9750 -77.7186 59° Northeast 480 552 39,500 -1,860 Descending Washington Center
11:26AM 35.0708 -77.6044 44° Northeast 472 543 37,100 -2,400 Descending Washington Center
11:27AM 35.1769 -77.5031 38° Northeast 472 543 34,700 -2,460 Descending Washington Center
11:28AM 35.2828 -77.4011 38° Northeast 477 549 32,200 -2,520 Descending Washington Center
11:29AM 35.3867 -77.2964 39° Northeast 477 549 29,700 -2,460 Descending Washington Center
11:30AM 35.4942 -77.1992 36° Northeast 477 549 27,300 -2,160 Descending Washington Center
11:31AM 35.6058 -77.1275 28° Northeast 446 513 25,400 -1,800 Descending Washington Center
11:32AM 35.7294 -77.0864 15° North 418 481 23,800 -1,500 Descending Washington Center
11:33AM 35.8467 -77.0475 15° North 418 481 22,400 -1,440 Descending Washington Center
11:34AM 35.9600 -77.0086 16° North 423 487 21,000 -1,620 Descending Washington Center
11:35AM 36.0561 -76.9819 13° North 406 467 19,300 -1,980 Descending Washington Center
11:35AM 36.1442 -76.9553 14° North 403 464 17,700 -1,320 Descending Washington Center
11:36AM 36.1756 -76.9378 24° Northeast 400 460 17,900 -1,440 Climbing Washington Center
11:37AM 36.2719 -76.9086 14° North 377 434 15,900 -2,040 Descending Washington Center
11:38AM 36.3725 -76.8792 13° North 362 417 13,900 -2,460 Descending Washington Center
11:39AM 36.4644 -76.8550 12° North 350 403 11,000 -2,040 Descending Washington Center
11:40AM 36.5522 -76.8278 14° North 332 382 9,900 -1,320 Descending Washington Center
11:41AM 36.6214 -76.8108 11° North 284 327 8,600 -1,560 Descending Washington Center
11:42AM 36.6925 -76.7964 North 276 318 7,200 -1,320 Descending Washington Center
11:43AM 36.7594 -76.7819 10° North 248 285 6,100 -1,140 Descending Washington Center
11:44AM 36.8347 -76.7675 North 256 295 4,900 -1,080 Descending Washington Center
11:45AM 36.8994 -76.7450 16° North 246 283 4,000 -480 Descending Washington Center
11:46AM 36.9625 -76.6992 30° Northeast 221 254 4,000  Level Washington Center